createdAt,value
2022-12-11T00:02:10.285Z,100.00
2022-12-11T00:04:36.972Z,100.00
2022-12-11T00:07:03.598Z,100.00
2022-12-11T00:09:30.170Z,100.00
2022-12-11T00:11:56.727Z,100.00
2022-12-11T00:14:23.353Z,100.00
2022-12-11T00:16:50.066Z,100.00
2022-12-11T00:19:16.807Z,100.00
2022-12-11T00:21:43.371Z,100.00
2022-12-11T00:24:09.966Z,100.00
2022-12-11T00:26:36.538Z,100.00
2022-12-11T00:29:03.178Z,100.00
2022-12-11T00:31:29.785Z,100.00
2022-12-11T00:33:56.395Z,100.00
2022-12-11T00:36:24.791Z,100.00
2022-12-11T00:38:51.769Z,100.00
2022-12-11T00:41:18.725Z,100.00
2022-12-11T00:43:45.273Z,100.00
2022-12-11T00:46:11.951Z,100.00
2022-12-11T00:48:38.767Z,100.00
2022-12-11T00:51:05.832Z,100.00
2022-12-11T00:53:32.351Z,100.00
2022-12-11T00:55:58.929Z,100.00
2022-12-11T00:58:25.488Z,100.00
2022-12-11T01:00:52.114Z,100.00
2022-12-11T01:03:18.790Z,100.00
2022-12-11T01:05:52.953Z,100.00
2022-12-11T01:08:19.622Z,100.00
2022-12-11T01:10:46.286Z,100.00
2022-12-11T01:13:13.038Z,100.00
2022-12-11T01:15:42.044Z,100.00
2022-12-11T01:18:09.293Z,100.00
2022-12-11T01:20:37.513Z,100.00
2022-12-11T01:23:04.039Z,100.00
2022-12-11T01:25:30.598Z,100.00
2022-12-11T01:27:57.122Z,100.00
2022-12-11T01:30:24.638Z,100.00
2022-12-11T01:32:51.849Z,100.00
2022-12-11T01:35:18.923Z,100.00
2022-12-11T01:37:45.655Z,100.00
2022-12-11T01:40:13.918Z,100.00
2022-12-11T01:42:40.407Z,100.00
2022-12-11T01:45:23.843Z,100.00
2022-12-11T01:47:53.822Z,100.00
2022-12-11T01:50:20.355Z,100.00
2022-12-11T01:52:47.971Z,100.00
2022-12-11T01:55:14.915Z,100.00
2022-12-11T01:57:43.481Z,100.00
2022-12-11T02:00:10.313Z,100.00
2022-12-11T02:02:36.979Z,100.00
2022-12-11T02:05:04.665Z,100.00
2022-12-11T02:07:33.888Z,100.00
2022-12-11T02:10:00.434Z,100.00
2022-12-11T02:12:35.911Z,100.00
2022-12-11T02:15:15.818Z,100.00
2022-12-11T02:18:02.567Z,100.00
2022-12-11T02:20:42.099Z,100.00
2022-12-11T02:23:27.136Z,100.00
2022-12-11T02:25:56.434Z,100.00
2022-12-11T02:28:22.971Z,100.00
2022-12-11T02:30:57.288Z,100.00
2022-12-11T02:33:27.795Z,100.00
2022-12-11T02:35:54.993Z,100.00
2022-12-11T02:38:25.515Z,100.00
2022-12-11T02:40:53.288Z,100.00
2022-12-11T02:43:20.365Z,100.00
2022-12-11T02:45:47.167Z,100.00
2022-12-11T02:48:15.498Z,100.00
2022-12-11T02:50:43.928Z,100.00
2022-12-11T02:53:12.526Z,100.00
2022-12-11T02:55:40.818Z,100.00
2022-12-11T02:58:12.513Z,100.00
2022-12-11T03:00:39.154Z,100.00
2022-12-11T03:03:05.778Z,100.00
2022-12-11T03:05:32.497Z,100.00
2022-12-11T03:07:59.128Z,100.00
2022-12-11T03:10:25.716Z,100.00
2022-12-11T03:12:54.119Z,100.00
2022-12-11T03:15:21.998Z,100.00
2022-12-11T03:18:09.858Z,100.00
2022-12-11T03:20:43.155Z,100.00
2022-12-11T03:23:17.357Z,100.00
2022-12-11T03:25:48.116Z,100.00
2022-12-11T03:28:19.673Z,100.00
2022-12-11T03:30:48.749Z,100.00
2022-12-11T03:33:24.271Z,100.00
2022-12-11T03:35:59.208Z,100.00
2022-12-11T03:38:28.997Z,100.00
2022-12-11T03:40:58.914Z,100.00
2022-12-11T03:43:26.577Z,100.00
2022-12-11T03:45:54.184Z,100.00
2022-12-11T03:48:21.642Z,100.00
2022-12-11T03:50:49.036Z,100.00
2022-12-11T03:53:16.389Z,100.00
2022-12-11T03:55:43.006Z,100.00
2022-12-11T03:58:09.536Z,100.00
2022-12-11T04:00:36.330Z,100.00
2022-12-11T04:03:16.006Z,100.00
2022-12-11T04:05:44.077Z,100.00
2022-12-11T04:08:10.933Z,100.00
2022-12-11T04:10:37.558Z,100.00
2022-12-11T04:13:04.191Z,100.00
2022-12-11T04:15:30.748Z,100.00
2022-12-11T04:18:16.031Z,100.00
2022-12-11T04:21:00.856Z,100.00
2022-12-11T04:23:46.001Z,100.00
2022-12-11T04:26:16.833Z,100.00
2022-12-11T04:28:44.114Z,100.00
2022-12-11T04:31:14.285Z,100.00
2022-12-11T04:33:41.334Z,100.00
2022-12-11T04:36:08.235Z,100.00
2022-12-11T04:38:34.835Z,100.00
2022-12-11T04:41:02.898Z,100.00
2022-12-11T04:43:29.796Z,100.00
2022-12-11T04:46:06.398Z,100.00
2022-12-11T04:48:33.275Z,100.00
2022-12-11T04:50:59.846Z,100.00
2022-12-11T04:53:26.850Z,100.00
2022-12-11T04:55:53.486Z,100.00
2022-12-11T04:58:20.035Z,100.00
2022-12-11T05:00:46.835Z,100.00
2022-12-11T05:03:13.454Z,100.00
2022-12-11T05:05:40.128Z,100.00
2022-12-11T05:08:06.759Z,100.00
2022-12-11T05:10:33.336Z,100.00
2022-12-11T05:12:59.849Z,100.00
2022-12-11T05:15:26.397Z,100.00
2022-12-11T05:17:53.009Z,100.00
2022-12-11T05:20:19.593Z,100.00
2022-12-11T05:22:46.098Z,100.00
2022-12-11T05:25:13.019Z,100.00
2022-12-11T05:27:39.856Z,100.00
2022-12-11T05:30:06.806Z,100.00
2022-12-11T05:32:33.430Z,100.00
2022-12-11T05:34:59.956Z,100.00
2022-12-11T05:37:27.234Z,100.00
2022-12-11T05:39:53.793Z,100.00
2022-12-11T05:42:24.110Z,100.00
2022-12-11T05:44:55.006Z,100.00
2022-12-11T05:47:21.558Z,100.00
2022-12-11T05:49:48.132Z,100.00
2022-12-11T05:52:14.657Z,100.00
2022-12-11T05:54:41.195Z,100.00
2022-12-11T05:57:07.829Z,100.00
2022-12-11T05:59:34.365Z,100.00
2022-12-11T06:02:00.999Z,100.00
2022-12-11T06:04:27.798Z,100.00
2022-12-11T06:06:55.125Z,100.00
2022-12-11T06:09:21.630Z,98.52
2022-12-11T06:11:48.211Z,100.00
2022-12-11T06:14:14.794Z,100.00
2022-12-11T06:16:41.384Z,100.00
2022-12-11T06:19:13.124Z,100.00
2022-12-11T06:21:39.619Z,100.00
2022-12-11T06:24:06.485Z,100.00
2022-12-11T06:26:33.125Z,100.00
2022-12-11T06:28:59.769Z,99.99
2022-12-11T06:31:26.539Z,100.00
2022-12-11T06:33:53.168Z,100.00
2022-12-11T06:36:20.916Z,100.00
2022-12-11T06:38:48.050Z,100.00
2022-12-11T06:41:15.040Z,100.00
2022-12-11T06:43:43.003Z,100.00
2022-12-11T06:46:14.430Z,100.00
2022-12-11T06:48:42.376Z,100.00
2022-12-11T06:51:10.354Z,100.00
2022-12-11T06:53:37.101Z,100.00
2022-12-11T06:56:04.494Z,100.00
2022-12-11T06:58:31.053Z,100.00
2022-12-11T07:00:57.832Z,100.00
2022-12-11T07:03:24.422Z,100.00
2022-12-11T07:05:51.168Z,100.00
2022-12-11T07:08:17.769Z,99.69
2022-12-11T07:10:44.471Z,100.00
2022-12-11T07:13:11.056Z,100.00
2022-12-11T07:15:40.464Z,91.39
2022-12-11T07:18:07.243Z,89.79
2022-12-11T07:20:33.818Z,96.79
2022-12-11T07:23:00.356Z,94.98
2022-12-11T07:25:27.132Z,100.00
2022-12-11T07:27:53.681Z,93.18
2022-12-11T07:30:20.276Z,92.12
2022-12-11T07:32:46.881Z,100.00
2022-12-11T07:35:13.827Z,96.24
2022-12-11T07:37:41.206Z,97.68
2022-12-11T07:40:08.172Z,100.00
2022-12-11T07:42:34.722Z,100.00
2022-12-11T07:45:01.249Z,100.00
2022-12-11T07:47:27.815Z,97.92
2022-12-11T07:49:54.406Z,97.71
2022-12-11T07:52:20.925Z,95.98
2022-12-11T07:54:47.568Z,93.83
2022-12-11T07:57:14.503Z,90.48
2022-12-11T07:59:41.938Z,79.83
2022-12-11T08:02:10.212Z,84.59
2022-12-11T08:04:36.793Z,83.31
2022-12-11T08:07:03.365Z,83.64
2022-12-11T08:09:29.959Z,84.82
2022-12-11T08:11:56.594Z,87.42
2022-12-11T08:14:23.152Z,83.90
2022-12-11T08:16:49.779Z,88.40
2022-12-11T08:19:16.360Z,86.59
2022-12-11T08:21:43.556Z,81.31
2022-12-11T08:24:10.365Z,82.32
2022-12-11T08:26:36.936Z,86.69
2022-12-11T08:29:03.537Z,82.28
2022-12-11T08:31:30.348Z,78.67
2022-12-11T08:33:57.447Z,80.43
2022-12-11T08:36:24.569Z,85.06
2022-12-11T08:38:51.876Z,82.93
2022-12-11T08:41:19.766Z,78.59
2022-12-11T08:43:46.829Z,76.68
2022-12-11T08:46:13.586Z,76.00
2022-12-11T08:48:40.844Z,77.46
2022-12-11T08:51:08.436Z,76.90
2022-12-11T08:53:35.030Z,80.26
2022-12-11T08:56:04.814Z,77.64
2022-12-11T08:58:31.327Z,77.20
2022-12-11T09:00:58.038Z,75.19
2022-12-11T09:03:24.914Z,76.21
2022-12-11T09:05:51.645Z,80.25
2022-12-11T09:08:18.260Z,76.15
2022-12-11T09:10:44.834Z,74.10
2022-12-11T09:13:11.394Z,74.96
2022-12-11T09:15:40.617Z,74.54
2022-12-11T09:18:07.570Z,73.37
2022-12-11T09:20:34.154Z,75.54
2022-12-11T09:23:01.378Z,72.12
2022-12-11T09:25:27.910Z,74.42
2022-12-11T09:27:54.477Z,72.60
2022-12-11T09:30:21.049Z,71.93
2022-12-11T09:32:47.593Z,73.79
2022-12-11T09:35:14.164Z,73.74
2022-12-11T09:37:40.689Z,72.53
2022-12-11T09:40:08.016Z,73.71
2022-12-11T09:42:53.415Z,76.46
2022-12-11T09:45:20.487Z,71.08
2022-12-11T09:47:52.724Z,73.30
2022-12-11T09:50:31.797Z,73.41
2022-12-11T09:53:04.379Z,71.73
2022-12-11T09:55:39.231Z,71.62
2022-12-11T09:58:26.029Z,67.76
2022-12-11T10:00:55.725Z,70.26
2022-12-11T10:03:50.442Z,66.77
2022-12-11T10:06:30.804Z,67.07
2022-12-11T10:09:09.516Z,67.86
2022-12-11T10:11:42.358Z,70.24
2022-12-11T10:14:33.381Z,68.61
2022-12-11T10:17:04.030Z,68.95
2022-12-11T10:19:32.129Z,70.40
2022-12-11T10:22:00.007Z,67.99
2022-12-11T10:25:09.364Z,68.87
2022-12-11T10:27:23.550Z,67.21
2022-12-11T10:30:01.370Z,70.04
2022-12-11T10:32:45.968Z,67.34
2022-12-11T10:35:18.539Z,66.52
2022-12-11T10:37:45.332Z,68.46
2022-12-11T10:40:13.194Z,68.94
2022-12-11T10:42:45.442Z,68.83
2022-12-11T10:45:16.216Z,66.70
2022-12-11T10:47:42.772Z,66.40
2022-12-11T10:50:21.938Z,66.14
2022-12-11T10:52:48.679Z,66.58
2022-12-11T10:55:38.190Z,66.95
2022-12-11T10:58:05.904Z,68.89
2022-12-11T11:00:37.726Z,67.41
2022-12-11T11:03:06.416Z,68.42
2022-12-11T11:05:37.089Z,67.39
2022-12-11T11:08:15.338Z,68.19
2022-12-11T11:10:51.144Z,68.83
2022-12-11T11:13:17.716Z,68.51
2022-12-11T11:15:45.296Z,68.11
2022-12-11T11:18:16.837Z,70.15
2022-12-11T11:20:48.248Z,65.03
2022-12-11T11:23:16.245Z,67.03
2022-12-11T11:25:51.718Z,66.56
2022-12-11T11:28:21.406Z,67.87
2022-12-11T11:31:06.392Z,68.03
2022-12-11T11:33:34.397Z,69.02
2022-12-11T11:36:02.653Z,67.96
2022-12-11T11:42:06.655Z,65.91
2022-12-11T11:44:42.194Z,67.11
2022-12-11T11:47:19.859Z,67.68
2022-12-11T11:49:46.359Z,68.00
2022-12-11T11:52:18.534Z,67.42
2022-12-11T11:54:47.762Z,67.30
2022-12-11T11:57:17.695Z,66.18
2022-12-11T11:59:53.579Z,66.18
2022-12-11T12:02:20.224Z,66.30
2022-12-11T12:04:47.071Z,67.28
2022-12-11T12:07:21.620Z,65.23
2022-12-11T12:09:54.428Z,64.92
2022-12-11T12:12:34.154Z,63.93
2022-12-11T12:15:25.418Z,66.12
2022-12-11T12:18:03.339Z,63.62
2022-12-11T12:20:36.606Z,63.27
2022-12-11T12:23:21.924Z,63.50
2022-12-11T12:25:51.221Z,63.94
2022-12-11T12:28:17.777Z,63.26
2022-12-11T12:30:56.169Z,62.38
2022-12-11T12:33:44.560Z,64.27
2022-12-11T12:36:19.802Z,65.24
2022-12-11T12:39:01.122Z,66.11
2022-12-11T12:41:27.625Z,61.96
2022-12-11T12:44:04.971Z,63.77
2022-12-11T12:46:37.811Z,64.29
2022-12-11T12:49:07.705Z,65.99
2022-12-11T12:51:34.278Z,64.23
2022-12-11T12:54:05.589Z,63.28
2022-12-11T12:56:37.842Z,64.68
2022-12-11T12:59:04.330Z,64.61
2022-12-11T13:01:31.677Z,65.33
2022-12-11T13:04:03.109Z,65.90
2022-12-11T13:06:38.479Z,67.71
2022-12-11T13:09:24.450Z,67.95
2022-12-11T13:11:54.641Z,67.07
2022-12-11T13:14:21.184Z,69.00
2022-12-11T13:16:51.316Z,68.43
2022-12-11T13:19:27.085Z,69.10
2022-12-11T13:22:03.538Z,70.43
2022-12-11T13:24:33.936Z,71.17
2022-12-11T13:27:11.128Z,71.13
2022-12-11T13:29:39.040Z,70.19
2022-12-11T13:32:17.622Z,69.43
2022-12-11T13:34:45.300Z,68.71
2022-12-11T13:37:24.922Z,69.15
2022-12-11T13:39:51.976Z,70.49
2022-12-11T13:42:27.319Z,70.31
2022-12-11T13:44:54.184Z,70.84
2022-12-11T13:47:21.071Z,71.35
2022-12-11T13:49:49.375Z,71.54
2022-12-11T13:52:20.162Z,71.95
2022-12-11T13:54:47.995Z,70.47
2022-12-11T13:57:22.327Z,73.47
2022-12-11T13:59:55.495Z,71.94
2022-12-11T14:02:25.321Z,72.19
2022-12-11T14:05:03.022Z,72.20
2022-12-11T14:07:34.437Z,73.49
2022-12-11T14:10:05.741Z,72.58
2022-12-11T14:12:32.863Z,72.06
2022-12-11T14:15:02.115Z,73.21
2022-12-11T14:17:30.133Z,74.74
2022-12-11T14:19:58.225Z,74.32
2022-12-11T14:22:28.675Z,74.10
2022-12-11T14:24:56.352Z,74.57
2022-12-11T14:27:23.691Z,75.33
2022-12-11T14:29:50.426Z,76.50
2022-12-11T14:32:19.292Z,76.01
2022-12-11T14:34:46.502Z,76.53
2022-12-11T14:37:14.697Z,75.09
2022-12-11T14:39:44.150Z,75.53
2022-12-11T14:42:39.354Z,75.73
2022-12-11T14:45:17.143Z,77.83
2022-12-11T14:47:44.284Z,77.30
2022-12-11T14:50:14.136Z,76.49
2022-12-11T14:52:43.737Z,77.46
2022-12-11T14:55:16.326Z,79.16
2022-12-11T14:57:44.672Z,77.75
2022-12-11T15:00:35.828Z,78.58
2022-12-11T15:03:07.574Z,81.63
2022-12-11T15:05:40.519Z,80.28
2022-12-11T15:08:10.278Z,79.63
2022-12-11T15:10:39.885Z,79.79
2022-12-11T15:13:07.496Z,81.10
2022-12-11T15:15:43.210Z,79.46
2022-12-11T15:18:17.170Z,80.56
2022-12-11T15:20:43.771Z,81.74
2022-12-11T15:23:12.862Z,80.25
2022-12-11T15:25:49.989Z,83.72
2022-12-11T15:28:26.372Z,83.58
2022-12-11T15:31:00.714Z,86.31
2022-12-11T15:33:33.858Z,85.85
2022-12-11T15:36:05.264Z,85.46
2022-12-11T15:38:34.041Z,87.52
2022-12-11T15:41:01.278Z,86.43
2022-12-11T15:43:28.990Z,88.23
2022-12-11T15:45:55.652Z,87.68
2022-12-11T15:48:22.219Z,88.49
2022-12-11T15:50:48.836Z,83.67
2022-12-11T15:53:15.329Z,86.63
2022-12-11T15:55:41.969Z,87.77
2022-12-11T15:58:12.199Z,82.55
2022-12-11T16:00:38.786Z,84.58
2022-12-11T16:03:05.312Z,85.62
2022-12-11T16:05:31.801Z,87.69
2022-12-11T16:08:01.306Z,87.81
2022-12-11T16:10:27.872Z,88.52
2022-12-11T16:12:59.870Z,91.67
2022-12-11T16:15:27.163Z,92.88
2022-12-11T16:18:03.829Z,95.21
2022-12-11T16:20:31.113Z,95.62
2022-12-11T16:22:58.336Z,97.57
2022-12-11T16:25:25.852Z,99.22
2022-12-11T16:27:54.828Z,99.09
2022-12-11T16:30:21.373Z,99.76
2022-12-11T16:32:47.963Z,100.00
2022-12-11T16:35:14.671Z,100.00
2022-12-11T16:37:41.350Z,100.00
2022-12-11T16:40:08.311Z,100.00
2022-12-11T16:42:35.210Z,100.00
2022-12-11T16:45:09.160Z,100.00
2022-12-11T16:47:35.867Z,100.00
2022-12-11T16:50:02.453Z,100.00
2022-12-11T16:52:28.989Z,100.00
2022-12-11T16:54:57.001Z,100.00
2022-12-11T16:57:23.514Z,99.70
2022-12-11T16:59:50.214Z,98.77
2022-12-11T17:02:16.927Z,96.30
2022-12-11T17:04:43.458Z,98.44
2022-12-11T17:07:10.287Z,99.61
2022-12-11T17:09:36.784Z,99.63
2022-12-11T17:12:03.809Z,99.65
2022-12-11T17:14:30.338Z,99.37
2022-12-11T17:16:56.872Z,96.25
2022-12-11T17:19:23.564Z,97.09
2022-12-11T17:21:51.720Z,97.65
2022-12-11T17:24:18.559Z,97.86
2022-12-11T17:26:45.210Z,97.16
2022-12-11T17:29:11.982Z,93.19
2022-12-11T17:31:38.835Z,94.66
2022-12-11T17:34:05.472Z,95.14
2022-12-11T17:36:32.130Z,96.53
2022-12-11T17:38:58.675Z,97.16
2022-12-11T17:41:25.410Z,98.24
2022-12-11T17:43:53.544Z,99.40
2022-12-11T17:46:20.556Z,99.89
2022-12-11T17:48:48.532Z,96.10
2022-12-11T17:51:21.143Z,95.84
2022-12-11T17:53:47.747Z,96.39
2022-12-11T17:56:14.361Z,97.33
2022-12-11T17:58:40.908Z,97.56
2022-12-11T18:01:08.329Z,98.92
2022-12-11T18:03:35.308Z,99.84
2022-12-11T18:06:12.807Z,99.21
2022-12-11T18:08:39.790Z,97.93
2022-12-11T18:11:11.027Z,98.84
2022-12-11T18:13:37.884Z,99.93
2022-12-11T18:16:06.052Z,100.00
2022-12-11T18:18:32.801Z,100.00
2022-12-11T18:20:59.500Z,100.00
2022-12-11T18:23:26.106Z,95.47
2022-12-11T18:25:52.649Z,96.15
2022-12-11T18:28:19.203Z,96.98
2022-12-11T18:30:46.186Z,97.22
2022-12-11T18:33:13.346Z,97.14
2022-12-11T18:35:40.524Z,97.91
2022-12-11T18:38:07.269Z,98.14
2022-12-11T18:40:33.747Z,99.17
2022-12-11T18:43:00.495Z,99.98
2022-12-11T18:45:27.073Z,99.92
2022-12-11T18:47:55.720Z,99.42
2022-12-11T18:50:22.310Z,98.75
2022-12-11T18:52:52.333Z,98.91
2022-12-11T18:55:18.877Z,96.65
2022-12-11T18:57:45.491Z,97.04
2022-12-11T19:00:12.388Z,96.45
2022-12-11T19:02:38.911Z,97.52
2022-12-11T19:05:05.630Z,98.42
2022-12-11T19:07:32.339Z,99.48
2022-12-11T19:09:58.895Z,100.00
2022-12-11T19:12:25.725Z,99.68
2022-12-11T19:14:52.265Z,95.44
2022-12-11T19:17:18.778Z,96.79
2022-12-11T19:19:47.397Z,98.11
2022-12-11T19:22:15.065Z,99.52
2022-12-11T19:24:41.587Z,99.58
2022-12-11T19:27:13.237Z,99.08
2022-12-11T19:29:40.279Z,97.75
2022-12-11T19:32:07.096Z,99.46
2022-12-11T19:34:33.759Z,97.24
2022-12-11T19:37:00.388Z,97.04
2022-12-11T19:39:26.998Z,92.82
2022-12-11T19:41:53.523Z,86.69
2022-12-11T19:44:20.077Z,90.03
2022-12-11T19:46:46.723Z,93.16
2022-12-11T19:49:13.352Z,96.83
2022-12-11T19:51:41.385Z,98.79
2022-12-11T19:54:08.851Z,96.81
2022-12-11T19:56:35.468Z,90.57
2022-12-11T19:59:02.999Z,95.31
2022-12-11T20:01:31.167Z,98.20
2022-12-11T20:03:59.677Z,99.98
2022-12-11T20:06:30.060Z,98.56
2022-12-11T20:08:56.674Z,99.44
2022-12-11T20:11:23.266Z,100.00
2022-12-11T20:13:50.139Z,100.00
2022-12-11T20:16:17.740Z,99.81
2022-12-11T20:18:44.567Z,100.00
2022-12-11T20:21:14.818Z,100.00
2022-12-11T20:23:41.547Z,100.00
2022-12-11T20:26:13.449Z,100.00
2022-12-11T20:28:40.257Z,100.00
2022-12-11T20:31:08.108Z,100.00
2022-12-11T20:33:34.811Z,100.00
2022-12-11T20:36:01.512Z,100.00
2022-12-11T20:38:34.091Z,100.00
2022-12-11T20:41:01.026Z,100.00
2022-12-11T20:43:27.543Z,100.00
2022-12-11T20:45:54.165Z,100.00
2022-12-11T20:48:20.707Z,100.00
2022-12-11T20:50:47.198Z,100.00
2022-12-11T20:53:13.706Z,100.00
2022-12-11T20:55:40.947Z,100.00
2022-12-11T20:58:07.704Z,100.00
2022-12-11T21:00:35.430Z,100.00
2022-12-11T21:03:02.032Z,100.00
2022-12-11T21:05:29.066Z,100.00
2022-12-11T21:07:55.655Z,100.00
2022-12-11T21:10:22.558Z,100.00
2022-12-11T21:12:49.077Z,100.00
2022-12-11T21:15:15.568Z,100.00
2022-12-11T21:17:42.068Z,100.00
2022-12-11T21:20:08.820Z,100.00
2022-12-11T21:22:35.379Z,100.00
2022-12-11T21:25:01.905Z,100.00
2022-12-11T21:27:28.394Z,100.00
2022-12-11T21:29:54.912Z,100.00
2022-12-11T21:32:21.443Z,100.00
2022-12-11T21:34:49.678Z,100.00
2022-12-11T21:37:16.320Z,100.00
2022-12-11T21:39:42.827Z,100.00
2022-12-11T21:42:09.404Z,100.00
2022-12-11T21:47:22.433Z,100.00
2022-12-11T21:49:48.988Z,100.00
2022-12-11T21:52:15.479Z,100.00
2022-12-11T21:54:42.684Z,100.00
2022-12-11T21:57:09.185Z,100.00
2022-12-11T21:59:35.923Z,100.00
2022-12-11T22:02:02.457Z,100.00
2022-12-11T22:04:29.016Z,100.00
2022-12-11T22:06:55.553Z,100.00
2022-12-11T22:09:22.058Z,100.00
2022-12-11T22:11:50.661Z,100.00
2022-12-11T22:14:20.234Z,100.00
2022-12-11T22:16:46.773Z,100.00
2022-12-11T22:19:13.588Z,100.00
2022-12-11T22:21:40.131Z,100.00
2022-12-11T22:24:07.192Z,100.00
2022-12-11T22:26:33.723Z,100.00
2022-12-11T22:29:00.217Z,100.00
2022-12-11T22:31:27.676Z,100.00
2022-12-11T22:33:54.964Z,100.00
2022-12-11T22:36:22.387Z,100.00
2022-12-11T22:38:49.131Z,100.00
2022-12-11T22:41:29.388Z,100.00
2022-12-11T22:43:56.341Z,100.00
2022-12-11T22:46:24.258Z,100.00
2022-12-11T22:48:51.507Z,100.00
2022-12-11T22:51:18.297Z,100.00
2022-12-11T22:53:45.087Z,100.00
2022-12-11T22:56:12.763Z,100.00
2022-12-11T22:58:39.779Z,100.00
2022-12-11T23:01:10.932Z,100.00
2022-12-11T23:03:38.645Z,100.00
2022-12-11T23:06:06.995Z,100.00
2022-12-11T23:08:33.796Z,100.00
2022-12-11T23:11:00.462Z,100.00
2022-12-11T23:13:26.972Z,100.00
2022-12-11T23:15:53.457Z,100.00
2022-12-11T23:18:19.989Z,100.00
2022-12-11T23:20:46.449Z,100.00
2022-12-11T23:23:12.918Z,100.00
2022-12-11T23:25:39.411Z,100.00
2022-12-11T23:28:05.889Z,100.00
2022-12-11T23:30:32.419Z,100.00
2022-12-11T23:32:58.921Z,100.00
2022-12-11T23:35:25.429Z,100.00
2022-12-11T23:37:51.978Z,100.00
2022-12-11T23:40:18.458Z,100.00
2022-12-11T23:42:45.002Z,100.00
2022-12-11T23:45:11.903Z,100.00
2022-12-11T23:47:38.645Z,100.00
2022-12-11T23:50:05.418Z,100.00
2022-12-11T23:52:31.907Z,100.00
2022-12-11T23:54:58.498Z,100.00
2022-12-11T23:57:25.187Z,100.00
2022-12-11T23:59:51.717Z,100.00
